Massena, New York
Current Conditions -  °F | °C
As of 5:53 PM on Friday 19 Dec 2014 (Local Time) from KMSS Reporting Station
Clear Clear  
Wind Chill: -15°   Ceiling: Unl
Heat Index: -9°   Visibility: 10mi
Dew Point: -12°   Wind: 7mph
Humidity: 80%   Direction: 220°SW
Pressure: 30.23"   Gusts: NA
Location:  44.93°N, 74.89°W
Report Text: KMSS 192253Z AUTO 22006KT 10SM CLR M09/M12 A3023 RMK AO2 SLP246 T10941122
Loading
Personal Weather Stations






























Interactive Weather Map New forecast layout! Learn more

10-Day Weather Forecast

Advertisements
Track Severe Weather on mobile